createdAt,value
2022-08-08T00:01:06.749Z,23.43
2022-08-08T00:03:44.932Z,23.43
2022-08-08T00:06:28.505Z,23.30
2022-08-08T00:09:16.716Z,23.26
2022-08-08T00:12:23.647Z,23.05
2022-08-08T00:18:03.688Z,23.06
2022-08-08T00:20:26.897Z,22.94
2022-08-08T00:23:00.239Z,22.94
2022-08-08T00:25:44.729Z,22.86
2022-08-08T00:28:34.593Z,22.71
2022-08-08T00:30:45.129Z,22.71
2022-08-08T00:33:24.076Z,22.75
2022-08-08T00:36:09.813Z,22.71
2022-08-08T00:39:36.069Z,22.70
2022-08-08T00:42:07.999Z,22.70
2022-08-08T00:44:29.637Z,22.65
2022-08-08T00:47:23.722Z,22.64
2022-08-08T00:50:12.967Z,22.64
2022-08-08T00:53:15.668Z,22.52
2022-08-08T00:56:19.394Z,22.55
2022-08-08T01:03:53.925Z,22.48
2022-08-08T01:05:04.586Z,22.47
2022-08-08T01:07:55.404Z,22.45
2022-08-08T01:10:55.764Z,22.37
2022-08-08T01:13:37.928Z,22.37
2022-08-08T01:16:27.978Z,22.30
2022-08-08T01:19:25.655Z,22.30
2022-08-08T01:22:13.045Z,22.25
2022-08-08T01:24:50.923Z,22.22
2022-08-08T01:27:44.250Z,22.22
2022-08-08T01:30:31.766Z,22.15
2022-08-08T01:33:53.845Z,22.11
2022-08-08T01:36:35.567Z,22.11
2022-08-08T01:39:35.104Z,22.09
2022-08-08T01:42:40.629Z,21.95
2022-08-08T01:45:16.704Z,21.96
2022-08-08T01:48:16.176Z,21.96
2022-08-08T01:50:46.011Z,21.95
2022-08-08T01:55:15.155Z,21.92
2022-08-08T01:56:34.216Z,21.85
2022-08-08T01:59:38.155Z,21.86
2022-08-08T02:02:34.135Z,21.79
2022-08-08T02:05:26.201Z,21.69
2022-08-08T02:08:12.114Z,21.69
2022-08-08T02:11:23.592Z,21.65
2022-08-08T02:14:10.079Z,21.58
2022-08-08T02:17:01.705Z,21.61
2022-08-08T02:20:08.410Z,21.62
2022-08-08T02:22:52.620Z,21.62
2022-08-08T02:25:46.999Z,21.48
2022-08-08T02:28:12.091Z,21.48
2022-08-08T02:31:43.445Z,21.41
2022-08-08T02:34:08.080Z,21.41
2022-08-08T02:36:44.863Z,21.41
2022-08-08T02:45:56.847Z,21.46
2022-08-08T02:48:27.349Z,21.37
2022-08-08T02:51:00.834Z,21.58
2022-08-08T02:53:47.378Z,21.58
2022-08-08T02:56:44.005Z,21.60
2022-08-08T02:59:57.300Z,21.60
2022-08-08T03:02:44.436Z,21.61
2022-08-08T03:05:46.363Z,21.61
2022-08-08T03:08:28.673Z,21.62
2022-08-08T03:12:01.181Z,21.67
2022-08-08T03:15:59.454Z,21.67
2022-08-08T03:17:12.987Z,21.70
2022-08-08T03:19:51.607Z,21.68
2022-08-08T03:22:38.216Z,21.68
2022-08-08T03:24:56.992Z,21.68
2022-08-08T03:27:46.249Z,21.74
2022-08-08T03:30:19.274Z,21.77
2022-08-08T03:32:57.751Z,21.82
2022-08-08T03:35:24.347Z,21.72
2022-08-08T03:38:53.819Z,21.72
2022-08-08T03:40:30.644Z,21.77
2022-08-08T03:43:16.620Z,21.75
2022-08-08T03:46:05.443Z,21.74
2022-08-08T03:48:09.292Z,21.74
2022-08-08T03:51:04.538Z,21.84
2022-08-08T03:53:38.052Z,21.89
2022-08-08T03:56:09.968Z,21.89
2022-08-08T03:58:47.973Z,21.93
2022-08-08T04:01:23.996Z,21.99
2022-08-08T04:03:58.957Z,21.99
2022-08-08T04:06:20.397Z,22.02
2022-08-08T04:08:50.707Z,22.11
2022-08-08T04:11:23.319Z,22.11
2022-08-08T04:14:03.943Z,22.15
2022-08-08T04:16:40.319Z,22.18
2022-08-08T04:19:01.612Z,22.31
2022-08-08T04:21:38.084Z,22.43
2022-08-08T04:24:28.216Z,22.48
2022-08-08T04:26:56.672Z,22.57
2022-08-08T04:29:11.913Z,22.63
2022-08-08T04:31:59.791Z,22.75
2022-08-08T04:34:15.768Z,22.86
2022-08-08T04:36:47.841Z,22.94
2022-08-08T04:40:03.607Z,22.94
2022-08-08T04:41:50.609Z,23.06
2022-08-08T04:44:21.101Z,23.09
2022-08-08T04:46:52.655Z,23.28
2022-08-08T04:49:28.848Z,23.46
2022-08-08T04:51:57.200Z,23.46
2022-08-08T04:54:40.305Z,23.57
2022-08-08T04:57:00.096Z,23.67
2022-08-08T04:59:31.435Z,23.88
2022-08-08T05:02:03.575Z,24.07
2022-08-08T05:04:34.628Z,24.07
2022-08-08T05:07:05.360Z,24.10
2022-08-08T05:09:36.485Z,24.10
2022-08-08T05:12:09.300Z,24.37
2022-08-08T05:14:40.559Z,24.47
2022-08-08T05:17:13.574Z,24.77
2022-08-08T05:20:11.691Z,24.89
2022-08-08T05:22:21.153Z,24.89
2022-08-08T05:24:51.473Z,24.99
2022-08-08T05:27:21.752Z,25.19
2022-08-08T05:29:52.535Z,25.28
2022-08-08T05:32:24.696Z,25.28
2022-08-08T05:34:56.748Z,25.37
2022-08-08T05:37:39.084Z,25.66
2022-08-08T05:40:02.222Z,25.75
2022-08-08T05:42:44.848Z,25.97
2022-08-08T05:45:30.832Z,25.97
2022-08-08T05:47:59.977Z,26.21
2022-08-08T05:50:19.446Z,26.21
2022-08-08T05:52:50.877Z,26.35
2022-08-08T05:55:21.337Z,26.49
2022-08-08T05:58:05.417Z,26.42
2022-08-08T06:00:34.383Z,26.42
2022-08-08T06:03:10.496Z,26.59
2022-08-08T06:06:05.077Z,26.83
2022-08-08T06:08:54.618Z,26.83
2022-08-08T06:11:18.434Z,27.45
2022-08-08T06:13:52.930Z,27.45
2022-08-08T06:16:27.488Z,27.62
2022-08-08T06:18:56.938Z,28.09
2022-08-08T06:21:33.155Z,28.09
2022-08-08T06:24:13.597Z,28.09
2022-08-08T06:26:45.295Z,29.04
2022-08-08T06:29:48.787Z,29.04
2022-08-08T06:32:08.971Z,29.36
2022-08-08T06:34:27.028Z,29.61
2022-08-08T06:36:57.867Z,30.48
2022-08-08T06:39:56.019Z,30.83
2022-08-08T06:45:10.166Z,31.24
2022-08-08T06:47:52.535Z,31.65
2022-08-08T06:50:17.580Z,32.19
2022-08-08T06:52:50.403Z,32.36
2022-08-08T06:55:21.432Z,32.36
2022-08-08T06:57:56.272Z,32.94
2022-08-08T07:00:30.766Z,32.87
2022-08-08T07:03:08.119Z,32.87
2022-08-08T07:05:41.638Z,33.41
2022-08-08T07:08:21.379Z,33.18
2022-08-08T07:10:55.897Z,33.42
2022-08-08T07:13:30.506Z,34.31
2022-08-08T07:16:10.702Z,34.31
2022-08-08T07:18:55.918Z,34.25
2022-08-08T07:21:31.272Z,34.26
2022-08-08T07:24:09.893Z,34.48
2022-08-08T07:26:43.465Z,35.25
2022-08-08T07:29:20.634Z,35.25
2022-08-08T07:32:15.844Z,35.51
2022-08-08T07:35:00.237Z,35.51
2022-08-08T07:37:20.082Z,35.52
2022-08-08T07:39:57.605Z,35.00
2022-08-08T07:42:32.807Z,35.55
2022-08-08T07:44:57.698Z,36.05
2022-08-08T07:47:38.409Z,36.17
2022-08-08T07:50:04.201Z,36.18
2022-08-08T07:52:43.422Z,36.79
2022-08-08T07:55:28.535Z,36.79
2022-08-08T07:58:02.731Z,36.75
2022-08-08T08:00:36.971Z,37.17
2022-08-08T08:03:23.549Z,37.17
2022-08-08T08:05:44.193Z,37.16
2022-08-08T08:08:19.006Z,37.71
2022-08-08T08:10:53.806Z,37.42
2022-08-08T08:14:07.728Z,37.63
2022-08-08T08:16:12.433Z,37.12
2022-08-08T08:18:55.684Z,37.36
2022-08-08T08:21:44.023Z,38.00
2022-08-08T08:23:54.562Z,37.93
2022-08-08T08:26:27.487Z,38.38
2022-08-08T08:28:58.506Z,39.34
2022-08-08T08:31:28.977Z,38.63
2022-08-08T08:34:00.991Z,38.42
2022-08-08T08:36:31.772Z,38.91
2022-08-08T08:39:02.211Z,39.31
2022-08-08T08:41:35.230Z,38.94
2022-08-08T08:44:13.901Z,39.09
2022-08-08T08:46:40.113Z,38.67
2022-08-08T08:49:12.066Z,38.16
2022-08-08T08:51:51.297Z,38.16
2022-08-08T08:54:19.973Z,38.72
2022-08-08T08:56:52.454Z,39.07
2022-08-08T08:59:58.475Z,39.50
2022-08-08T09:01:58.532Z,38.83
2022-08-08T09:04:38.709Z,38.99
2022-08-08T09:07:12.256Z,38.99
2022-08-08T09:09:47.395Z,39.28
2022-08-08T09:12:14.946Z,39.28
2022-08-08T09:14:47.005Z,38.86
2022-08-08T09:17:41.766Z,38.30
2022-08-08T09:22:01.796Z,38.30
2022-08-08T09:22:32.215Z,41.20
2022-08-08T09:25:07.457Z,41.20
2022-08-08T09:27:55.725Z,40.12
2022-08-08T09:30:17.926Z,40.28
2022-08-08T09:33:12.270Z,39.06
2022-08-08T09:35:32.066Z,39.06
2022-08-08T09:38:09.635Z,39.74
2022-08-08T09:40:46.516Z,39.74
2022-08-08T09:44:04.791Z,40.11
2022-08-08T09:46:06.576Z,40.40
2022-08-08T09:48:42.648Z,40.47
2022-08-08T09:51:10.010Z,39.72
2022-08-08T09:54:01.227Z,39.72
2022-08-08T09:56:25.413Z,38.73
2022-08-08T09:59:25.975Z,39.80
2022-08-08T10:02:00.023Z,39.80
2022-08-08T10:04:41.568Z,39.81
2022-08-08T10:07:07.494Z,39.81
2022-08-08T10:10:00.487Z,40.19
2022-08-08T10:12:26.222Z,39.94
2022-08-08T10:14:43.564Z,40.14
2022-08-08T10:17:55.964Z,40.14
2022-08-08T10:19:58.168Z,40.85
2022-08-08T10:22:20.684Z,40.85
2022-08-08T10:24:54.624Z,41.41
2022-08-08T10:27:28.535Z,40.67
2022-08-08T10:30:05.641Z,41.48
2022-08-08T10:32:39.273Z,40.93
2022-08-08T10:36:01.923Z,40.27
2022-08-08T10:37:52.883Z,40.27
2022-08-08T10:40:44.818Z,40.93
2022-08-08T10:43:15.874Z,40.75
2022-08-08T10:45:56.466Z,40.75
2022-08-08T10:48:20.023Z,39.70
2022-08-08T10:50:53.082Z,39.84
2022-08-08T10:53:56.634Z,41.54
2022-08-08T10:56:05.264Z,41.44
2022-08-08T10:58:37.523Z,41.17
2022-08-08T11:01:12.658Z,41.17
2022-08-08T11:04:00.505Z,42.52
2022-08-08T11:06:19.564Z,41.29
2022-08-08T11:08:53.416Z,41.32
2022-08-08T11:11:31.732Z,41.12
2022-08-08T11:13:59.965Z,41.95
2022-08-08T11:16:34.401Z,41.49
2022-08-08T11:19:06.101Z,42.14
2022-08-08T11:21:40.573Z,42.20
2022-08-08T11:24:12.724Z,41.08
2022-08-08T11:26:56.372Z,41.60
2022-08-08T11:29:20.503Z,40.83
2022-08-08T11:31:59.146Z,40.25
2022-08-08T11:34:46.893Z,40.71
2022-08-08T11:37:14.993Z,41.44
2022-08-08T11:39:43.548Z,40.90
2022-08-08T11:42:11.474Z,41.11
2022-08-08T11:44:45.542Z,40.48
2022-08-08T11:47:20.906Z,40.48
2022-08-08T11:50:03.527Z,39.14
2022-08-08T11:52:45.319Z,40.25
2022-08-08T11:55:19.847Z,40.25
2022-08-08T12:01:12.323Z,41.14
2022-08-08T12:03:53.983Z,40.25
2022-08-08T12:06:25.579Z,40.25
2022-08-08T12:09:07.081Z,40.37
2022-08-08T12:11:45.975Z,41.78
2022-08-08T12:14:28.961Z,41.92
2022-08-08T12:16:58.547Z,42.06
2022-08-08T12:19:37.432Z,42.06
2022-08-08T12:22:32.737Z,40.68
2022-08-08T12:25:00.538Z,41.89
2022-08-08T12:27:45.242Z,41.36
2022-08-08T12:30:15.891Z,40.90
2022-08-08T12:32:47.977Z,41.21
2022-08-08T12:35:23.293Z,41.21
2022-08-08T12:38:03.814Z,40.42
2022-08-08T12:40:57.140Z,40.42
2022-08-08T12:43:43.569Z,40.44
2022-08-08T12:46:04.512Z,41.02
2022-08-08T12:48:38.561Z,41.16
2022-08-08T12:51:24.587Z,41.16
2022-08-08T12:54:04.723Z,42.22
2022-08-08T12:56:40.427Z,43.05
2022-08-08T12:59:18.845Z,41.57
2022-08-08T13:01:55.847Z,41.10
2022-08-08T13:04:29.688Z,42.05
2022-08-08T13:07:12.074Z,42.45
2022-08-08T13:10:05.489Z,41.76
2022-08-08T13:12:46.712Z,41.76
2022-08-08T13:15:24.978Z,41.92
2022-08-08T13:18:10.925Z,42.42
2022-08-08T13:20:29.845Z,41.79
2022-08-08T13:23:30.815Z,41.79
2022-08-08T13:25:36.369Z,40.26
2022-08-08T13:28:12.126Z,41.07
2022-08-08T13:30:46.235Z,41.32
2022-08-08T13:33:41.950Z,40.08
2022-08-08T13:36:08.164Z,40.08
2022-08-08T13:38:41.913Z,39.77
2022-08-08T13:41:16.023Z,39.77
2022-08-08T13:43:46.851Z,39.68
2022-08-08T13:46:26.499Z,39.25
2022-08-08T13:50:33.934Z,39.25
2022-08-08T13:51:33.823Z,40.05
2022-08-08T13:53:59.997Z,38.94
2022-08-08T13:56:41.579Z,39.92
2022-08-08T13:59:07.531Z,39.92
2022-08-08T14:01:52.894Z,39.95
2022-08-08T14:04:18.022Z,38.81
2022-08-08T14:06:47.573Z,38.75
2022-08-08T14:09:29.709Z,38.62
2022-08-08T14:11:51.531Z,38.54
2022-08-08T14:14:27.208Z,39.39
2022-08-08T14:16:55.326Z,39.09
2022-08-08T14:19:57.008Z,39.09
2022-08-08T14:22:24.562Z,37.69
2022-08-08T14:25:07.546Z,37.69
2022-08-08T14:27:40.540Z,37.34
2022-08-08T14:30:17.745Z,35.61
2022-08-08T14:32:53.158Z,35.61
2022-08-08T14:35:34.970Z,35.66
2022-08-08T14:38:08.746Z,35.41
2022-08-08T14:40:39.760Z,35.29
2022-08-08T14:43:22.555Z,35.09
2022-08-08T14:46:01.682Z,34.80
2022-08-08T14:48:16.478Z,34.79
2022-08-08T14:50:46.761Z,34.46
2022-08-08T14:53:18.506Z,34.22
2022-08-08T14:56:01.747Z,33.93
2022-08-08T14:58:21.490Z,34.15
2022-08-08T15:00:54.554Z,33.78
2022-08-08T15:03:26.013Z,33.78
2022-08-08T15:05:58.937Z,33.51
2022-08-08T15:08:34.476Z,33.05
2022-08-08T15:11:02.385Z,32.90
2022-08-08T15:13:40.591Z,32.82
2022-08-08T15:16:08.168Z,32.68
2022-08-08T15:18:40.627Z,32.68
2022-08-08T15:21:13.821Z,32.60
2022-08-08T15:23:44.261Z,32.60
2022-08-08T15:26:16.250Z,32.38
2022-08-08T15:28:46.687Z,32.30
2022-08-08T15:31:25.882Z,32.09
2022-08-08T15:33:59.236Z,32.13
2022-08-08T15:36:28.454Z,31.95
2022-08-08T15:38:55.017Z,31.82
2022-08-08T15:41:29.937Z,31.82
2022-08-08T15:44:00.797Z,31.74
2022-08-08T15:46:35.362Z,31.61
2022-08-08T15:49:04.115Z,31.61
2022-08-08T15:51:34.795Z,31.63
2022-08-08T15:54:05.419Z,31.46
2022-08-08T15:56:35.773Z,31.27
2022-08-08T15:59:10.625Z,31.27
2022-08-08T16:02:00.038Z,31.18
2022-08-08T16:04:16.838Z,31.10
2022-08-08T16:06:51.997Z,31.04
2022-08-08T16:13:10.362Z,30.84
2022-08-08T16:13:21.205Z,30.94
2022-08-08T16:14:32.559Z,30.84
2022-08-08T16:17:01.146Z,30.87
2022-08-08T16:19:57.231Z,30.40
2022-08-08T16:22:04.534Z,30.40
2022-08-08T16:24:35.722Z,30.40
2022-08-08T16:27:06.150Z,30.43
2022-08-08T16:30:08.236Z,30.31
2022-08-08T16:32:21.936Z,30.05
2022-08-08T16:34:45.415Z,29.88
2022-08-08T16:37:16.263Z,29.88
2022-08-08T16:40:01.241Z,29.97
2022-08-08T16:42:19.503Z,29.93
2022-08-08T16:44:54.423Z,29.69
2022-08-08T16:47:31.590Z,29.61
2022-08-08T16:50:01.497Z,29.50
2022-08-08T16:55:06.933Z,29.24
2022-08-08T16:55:33.972Z,29.24
2022-08-08T16:58:14.084Z,29.30
2022-08-08T17:00:12.419Z,29.28
2022-08-08T17:02:45.534Z,29.12
2022-08-08T17:05:16.296Z,28.90
2022-08-08T17:07:51.276Z,29.00
2022-08-08T17:10:19.607Z,28.81
2022-08-08T17:12:53.065Z,28.79
2022-08-08T17:15:23.632Z,28.79
2022-08-08T17:18:02.249Z,28.70
2022-08-08T17:20:26.313Z,28.64
2022-08-08T17:23:16.511Z,28.55
2022-08-08T17:25:47.716Z,28.47
2022-08-08T17:28:01.840Z,28.47
2022-08-08T17:30:32.405Z,28.51
2022-08-08T17:34:36.799Z,28.53
2022-08-08T17:35:54.464Z,28.52
2022-08-08T17:38:14.362Z,28.42
2022-08-08T17:40:44.167Z,28.36
2022-08-08T17:43:16.248Z,28.28
2022-08-08T17:45:46.563Z,28.28
2022-08-08T17:48:30.824Z,28.22
2022-08-08T17:50:48.932Z,28.22
2022-08-08T17:53:22.853Z,28.07
2022-08-08T17:56:05.487Z,28.08
2022-08-08T17:58:31.637Z,28.08
2022-08-08T18:01:05.469Z,28.00
2022-08-08T18:03:38.171Z,28.00
2022-08-08T18:06:22.186Z,27.89
2022-08-08T18:08:43.684Z,27.78
2022-08-08T18:11:17.324Z,27.81
2022-08-08T18:13:48.149Z,27.81
2022-08-08T18:16:23.635Z,27.74
2022-08-08T18:18:56.178Z,27.56
2022-08-08T18:21:59.465Z,27.56
2022-08-08T18:24:01.781Z,27.57
2022-08-08T18:26:42.969Z,27.56
2022-08-08T18:29:15.529Z,27.49
2022-08-08T18:31:46.029Z,27.31
2022-08-08T18:34:25.935Z,27.31
2022-08-08T18:36:50.303Z,27.17
2022-08-08T18:39:27.415Z,27.17
2022-08-08T18:42:03.213Z,27.29
2022-08-08T18:44:27.514Z,27.31
2022-08-08T18:46:58.436Z,27.21
2022-08-08T18:49:32.317Z,27.21
2022-08-08T18:52:02.165Z,27.20
2022-08-08T18:54:33.170Z,27.20
2022-08-08T18:57:06.962Z,27.19
2022-08-08T18:59:38.407Z,27.19
2022-08-08T19:02:25.992Z,27.11
2022-08-08T19:04:41.729Z,27.11
2022-08-08T19:07:13.812Z,27.08
2022-08-08T19:09:49.658Z,27.07
2022-08-08T19:12:26.516Z,27.07
2022-08-08T19:14:57.971Z,26.99
2022-08-08T19:17:47.579Z,27.09
2022-08-08T19:20:06.665Z,27.04
2022-08-08T19:23:16.694Z,27.04
2022-08-08T19:26:20.304Z,27.05
2022-08-08T19:28:24.835Z,26.95
2022-08-08T19:31:09.435Z,26.90
2022-08-08T19:33:51.613Z,26.91
2022-08-08T19:36:09.161Z,26.91
2022-08-08T19:38:40.722Z,26.81
2022-08-08T19:41:11.754Z,26.81
2022-08-08T19:43:44.072Z,26.91
2022-08-08T19:46:15.894Z,26.83
2022-08-08T19:48:48.018Z,26.76
2022-08-08T19:51:25.068Z,26.76
2022-08-08T19:53:53.981Z,26.74
2022-08-08T19:56:25.468Z,26.75
2022-08-08T19:58:57.157Z,26.75
2022-08-08T20:01:50.204Z,26.75
2022-08-08T20:04:03.613Z,26.71
2022-08-08T20:06:34.079Z,26.69
2022-08-08T20:09:09.060Z,26.70
2022-08-08T20:11:43.251Z,26.70
2022-08-08T20:14:34.603Z,26.70
2022-08-08T20:16:43.970Z,26.70
2022-08-08T20:19:16.077Z,26.63
2022-08-08T20:21:47.063Z,26.51
2022-08-08T20:24:19.287Z,26.57
2022-08-08T20:26:53.241Z,26.56
2022-08-08T20:29:55.271Z,26.49
2022-08-08T20:32:10.033Z,26.49
2022-08-08T20:34:33.866Z,26.46
2022-08-08T20:37:06.594Z,26.56
2022-08-08T20:39:41.637Z,26.56
2022-08-08T20:42:09.521Z,26.45
2022-08-08T20:44:40.104Z,26.39
2022-08-08T20:47:23.611Z,26.39
2022-08-08T20:49:46.995Z,26.38
2022-08-08T20:52:15.419Z,26.39
2022-08-08T20:54:46.061Z,26.35
2022-08-08T20:57:28.906Z,26.29
2022-08-08T20:59:49.508Z,26.29
2022-08-08T21:02:25.951Z,26.19
2022-08-08T21:04:53.021Z,26.18
2022-08-08T21:07:47.623Z,26.18
2022-08-08T21:10:08.237Z,26.09
2022-08-08T21:12:32.379Z,25.95
2022-08-08T21:15:06.963Z,25.87
2022-08-08T21:17:34.951Z,25.87
2022-08-08T21:22:56.861Z,25.83
2022-08-08T21:25:28.491Z,25.76
2022-08-08T21:28:09.819Z,25.58
2022-08-08T21:30:32.712Z,25.47
2022-08-08T21:33:08.122Z,25.47
2022-08-08T21:36:18.729Z,25.43
2022-08-08T21:38:16.470Z,25.38
2022-08-08T21:40:42.029Z,25.27
2022-08-08T21:43:19.597Z,25.19
2022-08-08T21:48:05.598Z,25.19
2022-08-08T21:48:30.357Z,25.10
2022-08-08T21:50:55.403Z,25.04
2022-08-08T21:54:32.650Z,24.94
2022-08-08T21:56:26.890Z,24.94
2022-08-08T21:58:37.641Z,24.88
2022-08-08T22:01:05.687Z,24.85
2022-08-08T22:03:37.874Z,24.71
2022-08-08T22:06:12.005Z,24.74
2022-08-08T22:08:42.557Z,24.70
2022-08-08T22:11:59.199Z,24.69
2022-08-08T22:13:51.137Z,24.69
2022-08-08T22:16:19.303Z,24.77
2022-08-08T22:18:52.969Z,24.77
2022-08-08T22:21:23.748Z,24.77
2022-08-08T22:23:56.004Z,24.79
2022-08-08T22:26:31.038Z,24.88
2022-08-08T22:29:04.708Z,24.79
2022-08-08T22:31:35.129Z,24.79
2022-08-08T22:34:13.772Z,24.77
2022-08-08T22:36:36.910Z,24.77
2022-08-08T22:39:07.300Z,24.77
2022-08-08T22:41:37.882Z,24.75
2022-08-08T22:44:09.736Z,24.72
2022-08-08T22:46:42.148Z,24.77
2022-08-08T22:49:17.925Z,24.77
2022-08-08T22:51:46.680Z,24.75
2022-08-08T22:54:31.522Z,24.63
2022-08-08T22:56:50.362Z,24.63
2022-08-08T22:59:20.872Z,24.57
2022-08-08T23:02:03.268Z,24.46
2022-08-08T23:04:31.766Z,24.40
2022-08-08T23:07:02.893Z,24.40
2022-08-08T23:09:30.391Z,24.36
2022-08-08T23:12:29.154Z,24.21
2022-08-08T23:14:33.675Z,24.14
2022-08-08T23:17:05.634Z,24.18
2022-08-08T23:19:35.936Z,24.07
2022-08-08T23:22:08.888Z,24.07
2022-08-08T23:24:41.718Z,23.99
2022-08-08T23:27:17.192Z,23.93
2022-08-08T23:29:55.920Z,23.93
2022-08-08T23:32:18.903Z,23.90
2022-08-08T23:34:58.780Z,23.86
2022-08-08T23:37:24.631Z,23.87
2022-08-08T23:39:55.643Z,23.87
2022-08-08T23:42:26.505Z,23.82
2022-08-08T23:44:58.235Z,23.76
2022-08-08T23:49:07.966Z,23.76
2022-08-08T23:50:05.383Z,23.74
2022-08-08T23:52:33.657Z,23.69
2022-08-08T23:55:22.322Z,23.69
2022-08-08T23:57:51.845Z,23.61
